Time;durP1;ratioP1;P1;durP2;ratioP2;P2;SDS_P1;SDS_P2;PMS_P1;PMS_P2;Temp;Humidity;BMP_temperature;BMP_pressure;BME280_temperature;BME280_humidity;BME280_pressure;Samples;Min_cycle;Max_cycle;Signal;HPM_P1;HPM_P2
2021/06/02 00:00:12;;;;;;;5.50;2.67;;;;;;;9.90;71.77;99475.58;1775304;80;21096;-69
2021/06/02 00:02:46;;;;;;;;;;;;;;;9.89;71.83;99473.96;1783342;80;20906;-69
2021/06/02 00:05:14;;;;;;;5.25;2.52;;;;;;;9.87;71.79;99472.66;1734398;82;20100;-69
2021/06/02 00:07:41;;;;;;;9.68;2.58;;;;;;;9.84;71.98;99469.17;1748317;82;21516;-69
2021/06/02 00:10:09;;;;;;;12.63;2.30;;;;;;;9.82;72.01;99474.96;1780786;80;20960;-69
2021/06/02 00:12:37;;;;;;;8.20;2.92;;;;;;;;;;1751429;82;20923;-71
2021/06/02 00:15:08;;;;;;;9.30;2.67;;;;;;;9.79;72.45;99466.02;1751374;82;20931;-71
2021/06/02 00:17:35;;;;;;;5.28;2.75;;;;;;;9.78;72.42;99462.22;1748539;82;20888;-70
2021/06/02 00:20:04;;;;;;;9.73;2.70;;;;;;;9.78;72.26;99463.59;1751598;82;20995;-70
2021/06/02 00:22:32;;;;;;;5.67;2.65;;;;;;;9.77;72.42;99464.71;1721598;82;20884;-70
2021/06/02 00:24:59;;;;;;;11.45;2.45;;;;;;;9.75;72.22;99462.28;1751786;82;21145;-70
2021/06/02 00:27:25;;;;;;;4.33;2.22;;;;;;;9.75;72.46;99461.47;1748412;82;20865;-71
2021/06/02 00:29:52;;;;;;;8.25;2.60;;;;;;;9.75;72.39;99466.39;1751575;82;20951;-70
2021/06/02 00:32:20;;;;;;;6.15;2.30;;;;;;;9.75;72.59;99455.43;1748752;82;20892;-71
2021/06/02 00:34:50;;;;;;;10.75;2.65;;;;;;;9.73;72.68;99453.56;1751625;82;21006;-70
2021/06/02 00:37:16;;;;;;;7.15;2.67;;;;;;;9.71;72.49;99451.69;1781153;80;21088;-70
2021/06/02 00:39:47;;;;;;;7.75;2.85;;;;;;;9.70;72.58;99452.81;1781117;80;21439;-70
2021/06/02 00:42:14;;;;;;;9.13;2.72;;;;;;;9.69;72.82;99453.94;1780846;80;20837;-69
2021/06/02 00:44:41;;;;;;;3.83;2.80;;;;;;;9.69;73.09;99447.64;1780869;80;20869;-70
2021/06/02 00:47:07;;;;;;;4.15;2.62;;;;;;;9.67;73.17;99441.66;1780991;80;20978;-69
2021/06/02 00:49:34;;;;;;;4.35;2.47;;;;;;;9.67;73.32;99445.22;1781183;80;21439;-70
2021/06/02 00:52:04;;;;;;;4.70;2.62;;;;;;;9.67;73.28;99447.95;1781203;80;21391;-70
2021/06/02 00:54:36;;;;;;;3.72;2.15;;;;;;;9.67;73.47;99437.55;1781115;80;20915;-70
2021/06/02 00:57:06;;;;;;;4.20;2.60;;;;;;;9.65;73.59;99435.13;1781177;80;20959;-70
2021/06/02 00:59:43;;;;;;;5.97;2.35;;;;;;;9.68;73.75;99444.09;1780306;80;20880;-70
2021/06/02 01:02:22;;;;;;;5.33;2.35;;;;;;;9.69;73.75;99440.79;1774146;81;21560;-70
2021/06/02 01:04:51;;;;;;;7.28;2.45;;;;;;;9.69;73.95;99440.23;1774057;81;21499;-70
2021/06/02 01:07:17;;;;;;;6.15;2.55;;;;;;;9.70;74.07;99436.92;1773992;81;20973;-69
2021/06/02 01:09:49;;;;;;;4.45;2.60;;;;;;;9.71;74.14;99433.06;1774294;81;21414;-70
2021/06/02 01:12:21;;;;;;;9.47;2.53;;;;;;;9.73;74.14;99437.67;1774113;80;20825;-70
2021/06/02 01:14:48;;;;;;;4.40;2.17;;;;;;;9.74;74.10;99433.81;1748744;81;21468;-70
2021/06/02 01:17:18;;;;;;;15.43;2.40;;;;;;;9.76;74.19;99435.68;1773946;81;20841;-70
2021/06/02 01:19:44;;;;;;;6.72;2.72;;;;;;;9.75;73.92;99429.39;1774221;81;20957;-70
2021/06/02 01:22:11;;;;;;;8.88;2.70;;;;;;;9.77;74.08;99432.62;1773950;81;20892;-70
2021/06/02 01:24:38;;;;;;;4.12;2.55;;;;;;;9.77;74.10;99422.22;1774015;81;20967;-70
2021/06/02 01:27:08;;;;;;;9.78;2.67;;;;;;;9.77;74.19;99427.14;1774093;80;20860;-70
2021/06/02 01:29:41;;;;;;;7.65;2.20;;;;;;;9.77;74.18;99418.92;1774284;81;21474;-70
2021/06/02 01:32:13;;;;;;;4.10;2.40;;;;;;;9.77;74.16;99416.73;1774011;81;20959;-70
2021/06/02 01:35:14;;;;;;;6.25;2.15;;;;;;;9.76;74.21;99417.30;1774277;80;20849;-70
2021/06/02 01:37:46;;;;;;;9.88;2.47;;;;;;;9.76;74.08;99420.05;1773799;80;20916;-70
2021/06/02 01:40:48;;;;;;;5.87;2.55;;;;;;;9.76;74.24;99421.41;1774392;80;21097;-68
2021/06/02 01:43:51;;;;;;;;;;;;;;;9.75;74.22;99420.35;1776591;80;20913;-68
2021/06/02 01:46:49;;;;;;;3.50;2.33;;;;;;;9.75;74.30;99418.98;1742104;82;20446;-70
2021/06/02 01:49:45;;;;;;;7.65;2.30;;;;;;;9.75;74.42;99422.53;1769299;80;21466;-69
2021/06/02 01:52:43;;;;;;;5.47;2.52;;;;;;;9.74;74.39;99420.91;1769588;80;20898;-68
2021/06/02 01:55:54;;;;;;;5.00;2.37;;;;;;;9.73;74.39;99417.92;1768644;81;21062;-68
2021/06/02 01:58:44;;;;;;;5.65;2.22;;;;;;;9.74;74.42;99419.55;1769676;81;20961;-68
2021/06/02 02:01:35;;;;;;;6.80;2.20;;;;;;;9.76;74.32;99420.05;1775935;80;20914;-68
2021/06/02 02:04:36;;;;;;;4.70;2.08;;;;;;;9.77;74.45;99419.48;1779045;80;20975;-68
2021/06/02 02:07:46;;;;;;;5.10;2.77;;;;;;;9.78;74.52;99422.47;1755693;81;20921;-70
2021/06/02 02:10:52;;;;;;;5.22;2.40;;;;;;;9.77;74.39;99424.41;1755622;81;21105;-70
2021/06/02 02:13:41;;;;;;;8.95;2.40;;;;;;;9.75;74.48;99430.76;1755463;81;20984;-69
2021/06/02 02:16:54;;;;;;;5.62;2.45;;;;;;;9.75;74.49;99430.76;1755839;81;21638;-70
2021/06/02 02:19:51;;;;;;;5.80;2.02;;;;;;;9.76;74.68;99441.16;1755518;81;20962;-69
2021/06/02 02:22:37;;;;;;;5.42;2.15;;;;;;;9.75;75.07;99435.43;1755602;81;20971;-69
2021/06/02 02:25:07;;;;;;;4.60;2.55;;;;;;;9.74;74.97;99433.25;1766888;81;21953;-69
2021/06/02 02:28:13;;;;;;;6.58;2.80;;;;;;;9.74;75.00;99430.51;1755851;81;20941;-69
2021/06/02 02:30:57;;;;;;;4.15;2.27;;;;;;;9.75;75.14;99434.88;1755572;81;20933;-69
2021/06/02 02:33:53;;;;;;;2.45;2.00;;;;;;;9.74;75.16;99435.99;1755645;81;20965;-70
2021/06/02 02:36:55;;;;;;;6.60;2.65;;;;;;;9.74;75.19;99434.63;1755630;81;20968;-69
2021/06/02 02:39:38;;;;;;;9.07;2.50;;;;;;;9.73;75.30;99433.00;1755742;81;21147;-68
2021/06/02 02:42:29;;;;;;;7.28;2.42;;;;;;;9.74;75.15;99437.36;1755473;81;21430;-69
2021/06/02 02:45:45;;;;;;;5.42;2.58;;;;;;;9.74;75.25;99435.18;1765679;81;20867;-69
2021/06/02 02:48:34;;;;;;;7.25;2.60;;;;;;;9.74;75.21;99428.33;1755610;81;20889;-68
2021/06/02 02:51:16;;;;;;;5.53;2.40;;;;;;;9.74;75.29;99440.66;1755322;81;20929;-69
2021/06/02 02:53:54;;;;;;;5.92;2.58;;;;;;;9.73;75.34;99448.08;1755463;81;21946;-69
2021/06/02 02:56:38;;;;;;;13.98;2.62;;;;;;;9.72;75.65;99442.34;1746423;81;20901;-68
2021/06/02 02:59:16;;;;;;;11.38;2.70;;;;;;;9.72;75.60;99447.83;1755557;81;20921;-69
2021/06/02 03:01:47;;;;;;;4.75;2.27;;;;;;;9.74;75.54;99457.92;1768122;81;20880;-69
2021/06/02 03:04:21;;;;;;;7.27;2.67;;;;;;;9.77;75.98;99458.67;1768503;81;20948;-69
2021/06/02 03:06:59;;;;;;;8.08;2.60;;;;;;;9.78;75.72;99452.63;1773844;80;21545;-69
2021/06/02 03:09:51;;;;;;;9.98;2.67;;;;;;;9.77;75.64;99455.93;1746705;81;20960;-69
2021/06/02 03:12:33;;;;;;;4.87;2.73;;;;;;;9.77;75.68;99462.78;1774151;80;20959;-70
2021/06/02 03:15:06;;;;;;;8.33;3.00;;;;;;;9.78;75.67;99464.41;1773909;80;20916;-69
2021/06/02 03:17:39;;;;;;;7.90;2.92;;;;;;;9.79;75.74;99461.09;1805807;79;21461;-69
2021/06/02 03:20:16;;;;;;;9.25;2.75;;;;;;;9.80;75.81;99462.16;1805636;79;21202;-69
2021/06/02 03:23:18;;;;;;;8.43;2.62;;;;;;;9.81;75.74;99454.74;1805965;79;20824;-69
2021/06/02 03:26:07;;;;;;;4.70;2.65;;;;;;;9.82;75.80;99453.63;1805223;79;21396;-69
2021/06/02 03:29:02;;;;;;;8.13;2.70;;;;;;;9.81;75.61;99451.44;1772664;80;21039;-70
2021/06/02 03:31:56;;;;;;;10.78;2.80;;;;;;;9.83;75.65;99453.84;1770051;81;21011;-69
2021/06/02 03:34:30;;;;;;;8.18;2.33;;;;;;;9.84;75.78;99451.34;1795181;79;22740;-68
2021/06/02 03:37:32;;;;;;;7.60;3.27;;;;;;;9.85;75.78;99449.66;1788669;79;20994;-68
2021/06/02 03:40:29;;;;;;;9.93;2.52;;;;;;;9.87;75.60;99458.38;1805766;79;20954;-68
2021/06/02 03:43:28;;;;;;;9.90;2.62;;;;;;;9.92;75.67;99458.81;1805656;79;20875;-69
2021/06/02 03:46:06;;;;;;;8.03;2.52;;;;;;;9.96;75.89;99445.29;1806178;79;21391;-69
2021/06/02 03:48:53;;;;;;;7.17;2.75;;;;;;;9.98;75.35;99449.90;1805790;79;21128;-69
2021/06/02 03:51:39;;;;;;;8.93;2.60;;;;;;;10.01;75.01;99448.70;1744573;81;21053;-69
2021/06/02 03:54:20;;;;;;;11.68;3.35;;;;;;;10.07;75.01;99450.76;1793939;79;20974;-69
2021/06/02 03:57:42;;;;;;;6.28;2.45;;;;;;;10.14;75.08;99460.72;1805766;79;20998;-68
2021/06/02 04:00:15;;;;;;;6.83;2.50;;;;;;;10.23;74.94;99453.38;1805320;79;20950;-67
2021/06/02 04:03:03;;;;;;;9.73;2.75;;;;;;;10.38;74.44;99443.36;1781958;79;21151;-69
2021/06/02 04:06:02;;;;;;;6.25;3.02;;;;;;;10.47;74.16;99448.85;1794823;79;20926;-68
2021/06/02 04:08:45;;;;;;;9.30;2.47;;;;;;;10.59;73.97;99453.18;1780842;80;20950;-69
2021/06/02 04:11:34;;;;;;;8.55;2.37;;;;;;;10.71;73.14;99452.00;1780999;80;20921;-68
2021/06/02 04:14:05;;;;;;;4.92;2.58;;;;;;;10.80;72.82;99453.41;1780883;80;20973;-68
2021/06/02 04:16:40;;;;;;;5.83;2.47;;;;;;;10.87;72.33;99451.81;1780928;80;21805;-68
2021/06/02 04:19:11;;;;;;;11.03;2.65;;;;;;;10.96;71.14;99457.33;1752586;80;20966;-69
2021/06/02 04:21:41;;;;;;;5.75;2.30;;;;;;;11.06;71.40;99452.87;1780365;80;20973;-69
2021/06/02 04:24:11;;;;;;;3.80;2.27;;;;;;;11.15;70.47;99456.44;1779894;80;20914;-69
2021/06/02 04:26:38;;;;;;;3.90;2.05;;;;;;;11.27;70.24;99453.05;1778375;80;20986;-69
2021/06/02 04:29:09;;;;;;;6.47;2.15;;;;;;;11.37;69.36;99458.23;1778761;80;21086;-69
2021/06/02 04:31:40;;;;;;;6.80;1.82;;;;;;;11.46;69.04;99448.05;1778525;80;20950;-69
2021/06/02 04:34:07;;;;;;;4.70;2.33;;;;;;;11.57;68.35;99434.19;1778561;80;20950;-69
2021/06/02 04:36:33;;;;;;;8.25;2.20;;;;;;;11.66;67.26;99445.75;1778675;80;21002;-69
2021/06/02 04:39:00;;;;;;;3.58;2.05;;;;;;;11.68;66.87;99440.73;1779527;80;21081;-69
2021/06/02 04:41:29;;;;;;;4.22;1.82;;;;;;;11.71;66.75;99439.52;1779320;80;21093;-69
2021/06/02 04:43:58;;;;;;;3.95;1.77;;;;;;;11.74;66.06;99443.55;1780506;80;20875;-68
2021/06/02 04:46:24;;;;;;;4.87;2.27;;;;;;;11.76;66.37;99452.29;1784981;79;20929;-68
2021/06/02 04:48:52;;;;;;;6.87;1.70;;;;;;;11.79;65.67;99444.22;1794826;79;21414;-68
2021/06/02 04:51:59;;;;;;;10.68;1.80;;;;;;;11.83;65.43;99443.81;1780937;80;21469;-68
2021/06/02 04:54:53;;;;;;;3.47;1.60;;;;;;;11.86;65.52;99451.98;1780712;80;21225;-68
2021/06/02 04:57:56;;;;;;;5.83;1.87;;;;;;;11.88;65.32;99447.77;1780659;80;20926;-68
2021/06/02 05:00:38;;;;;;;6.05;1.72;;;;;;;11.93;64.98;99445.98;1794622;79;20930;-68
2021/06/02 05:03:39;;;;;;;4.80;1.60;;;;;;;11.93;64.91;99455.05;1812663;79;20910;-68
2021/06/02 05:06:37;;;;;;;4.00;2.37;;;;;;;11.90;64.83;99459.25;1806521;77;20839;-68
2021/06/02 05:09:41;;;;;;;3.47;1.80;;;;;;;11.93;65.58;99459.73;1813211;79;21903;-68
2021/06/02 05:12:52;;;;;;;9.90;1.90;;;;;;;11.95;65.59;99455.52;1759622;79;21492;-68
2021/06/02 05:15:58;;;;;;;3.90;2.00;;;;;;;11.99;64.67;99455.69;1813226;79;21529;-68
2021/06/02 05:18:57;;;;;;;4.12;2.02;;;;;;;11.96;64.73;99446.14;1812886;77;20883;-68
2021/06/02 05:22:05;;;;;;;3.33;1.77;;;;;;;11.95;65.17;99456.91;1812860;79;20894;-69
2021/06/02 05:24:55;;;;;;;5.60;2.08;;;;;;;11.96;65.43;99461.84;1788040;79;21140;-69
2021/06/02 05:27:51;;;;;;;3.90;1.55;;;;;;;11.93;65.71;99456.98;1812847;79;21383;-71
2021/06/02 05:31:03;;;;;;;6.53;2.15;;;;;;;11.93;65.39;99461.92;1728527;82;21047;-67
2021/06/02 05:34:04;;;;;;;5.60;2.33;;;;;;;11.93;65.14;99463.30;1728419;83;20930;-67
2021/06/02 05:37:03;;;;;;;5.87;2.02;;;;;;;11.95;66.09;99463.78;1809032;79;21465;-67
2021/06/02 05:40:13;;;;;;;8.35;2.02;;;;;;;11.99;65.69;99469.44;1813137;79;21782;-68
2021/06/02 05:43:11;;;;;;;6.03;1.90;;;;;;;12.00;66.08;99460.86;1747637;81;20993;-68
2021/06/02 05:46:35;;;;;;;3.90;1.90;;;;;;;12.03;66.68;99464.90;1726447;82;20998;-67
2021/06/02 05:49:30;;;;;;;6.75;2.15;;;;;;;12.06;66.58;99466.42;1688210;85;21052;-67
2021/06/02 05:52:39;;;;;;;4.80;1.87;;;;;;;12.01;66.33;99471.30;1745431;81;20935;-67
2021/06/02 05:55:40;;;;;;;2.90;2.05;;;;;;;11.98;67.11;99474.13;1759012;80;21778;-68
2021/06/02 05:59:04;;;;;;;4.92;2.15;;;;;;;11.95;66.90;99468.47;1752504;80;21031;-67
2021/06/02 06:01:59;;;;;;;4.33;1.82;;;;;;;11.94;67.73;99472.36;1789881;79;20848;-67
2021/06/02 06:05:16;;;;;;;6.58;2.08;;;;;;;11.93;68.68;99473.49;1784093;79;21054;-67
2021/06/02 06:07:52;;;;;;;5.03;2.12;;;;;;;11.94;68.95;99472.36;1814566;79;21034;-68
2021/06/02 06:11:05;;;;;;;6.47;2.83;;;;;;;11.94;68.95;99480.05;1794551;79;20986;-68
2021/06/02 06:14:04;;;;;;;4.95;2.45;;;;;;;11.94;69.31;99475.11;1761491;79;21112;-68
2021/06/02 06:16:45;;;;;;;4.72;2.30;;;;;;;11.97;69.63;99484.09;1779825;79;21549;-68
2021/06/02 06:19:59;;;;;;;5.72;2.27;;;;;;;12.00;69.39;99483.44;1798154;79;21035;-67
2021/06/02 06:22:57;;;;;;;4.47;2.30;;;;;;;12.04;68.98;99483.83;1776814;79;21065;-68
2021/06/02 06:25:38;;;;;;;8.13;2.47;;;;;;;12.08;69.09;99482.61;1797482;79;20962;-69
2021/06/02 06:28:43;;;;;;;5.03;2.33;;;;;;;12.07;69.25;99473.55;1798257;79;21065;-69
2021/06/02 06:31:22;;;;;;;7.97;2.30;;;;;;;12.08;68.94;99468.28;1798256;79;21509;-68
2021/06/02 06:33:49;;;;;;;9.38;2.98;;;;;;;12.13;68.87;99464.55;1788584;79;20935;-71
2021/06/02 06:36:19;;;;;;;6.83;2.58;;;;;;;12.18;68.50;99468.47;1772689;79;20934;-70
2021/06/02 06:39:15;;;;;;;7.05;2.10;;;;;;;12.25;69.05;99464.65;1767357;81;21081;-70
2021/06/02 06:41:41;;;;;;;4.05;2.22;;;;;;;12.31;67.87;99470.22;1767466;81;20966;-68
2021/06/02 06:44:07;;;;;;;3.77;2.08;;;;;;;12.32;67.64;99469.08;1739490;81;20978;-73
2021/06/02 06:46:33;;;;;;;5.33;2.10;;;;;;;12.34;67.68;99456.36;1786444;79;20936;-68
2021/06/02 06:49:00;;;;;;;5.30;2.20;;;;;;;12.36;67.83;99459.03;1787489;79;21066;-67
2021/06/02 06:51:29;;;;;;;5.85;2.12;;;;;;;12.41;66.75;99451.16;1779127;79;21995;-67
2021/06/02 06:53:56;;;;;;;5.05;1.62;;;;;;;12.44;66.41;99451.87;1796093;79;21014;-68
2021/06/02 06:56:23;;;;;;;5.53;2.12;;;;;;;12.45;66.28;99454.30;1767810;81;20902;-67
2021/06/02 06:58:49;;;;;;;17.35;2.47;;;;;;;12.43;66.32;99446.13;1798703;79;21537;-67
2021/06/02 07:01:16;;;;;;;8.05;2.30;;;;;;;12.45;67.37;99438.34;1798700;79;20883;-68
2021/06/02 07:03:43;;;;;;;4.55;1.87;;;;;;;12.48;66.07;99444.57;1799866;79;21191;-67
2021/06/02 07:06:12;;;;;;;4.10;1.82;;;;;;;12.51;66.44;99446.66;1755211;80;21548;-67
2021/06/02 07:08:45;;;;;;;3.15;2.12;;;;;;;12.55;66.66;99446.23;1799842;79;21494;-67
2021/06/02 07:11:14;;;;;;;7.33;2.10;;;;;;;12.59;66.28;99441.69;1813057;79;20912;-67
2021/06/02 07:13:41;;;;;;;3.70;1.80;;;;;;;12.62;66.05;99441.59;1807042;79;21041;-67
2021/06/02 07:16:11;;;;;;;6.97;2.22;;;;;;;12.68;66.49;99439.70;1795259;79;21831;-67
2021/06/02 07:18:44;;;;;;;11.68;2.10;;;;;;;12.76;65.35;99411.84;1794325;79;21465;-68
2021/06/02 07:21:12;;;;;;;4.80;2.12;;;;;;;12.81;65.94;99429.55;1778405;79;21498;-69
2021/06/02 07:23:40;;;;;;;5.12;2.27;;;;;;;12.93;65.86;99437.91;1784026;79;20986;-69
2021/06/02 07:26:07;;;;;;;5.92;1.62;;;;;;;13.07;65.68;99432.15;1772946;79;21592;-68
2021/06/02 07:28:38;;;;;;;5.37;2.25;;;;;;;13.21;63.26;99442.38;1822816;78;21096;-68
2021/06/02 07:31:06;;;;;;;2.65;1.52;;;;;;;13.33;62.99;99436.09;1810588;78;20875;-68
2021/06/02 07:33:33;;;;;;;4.08;1.90;;;;;;;13.45;62.50;99442.48;1812839;79;20918;-69
2021/06/02 07:35:59;;;;;;;6.17;1.30;;;;;;;13.59;61.66;99444.96;1812769;79;20974;-68
2021/06/02 07:38:25;;;;;;;4.37;1.70;;;;;;;13.72;61.45;99453.53;1808053;79;20919;-69
2021/06/02 07:40:52;;;;;;;8.93;1.57;;;;;;;13.83;60.19;99446.45;1780705;80;21299;-69
2021/06/02 07:43:19;;;;;;;4.33;1.50;;;;;;;13.95;59.93;99448.41;1781931;79;21549;-69
2021/06/02 07:45:46;;;;;;;7.28;1.92;;;;;;;14.04;59.60;99456.60;1813094;79;20879;-68
2021/06/02 07:48:13;;;;;;;2.80;1.55;;;;;;;14.09;59.43;99456.39;1780997;80;20931;-69
2021/06/02 07:50:40;;;;;;;3.37;1.50;;;;;;;14.14;59.94;99464.45;1781034;80;20986;-69
2021/06/02 07:53:07;;;;;;;7.25;2.12;;;;;;;14.21;60.23;99463.32;1780951;80;21817;-69
2021/06/02 07:55:34;;;;;;;3.37;2.08;;;;;;;14.27;59.12;99463.33;1780909;80;20977;-69
2021/06/02 07:58:01;;;;;;;5.78;2.27;;;;;;;14.28;58.65;99456.66;1794703;78;20882;-69
2021/06/02 08:00:27;;;;;;;6.65;2.02;;;;;;;14.30;59.58;99458.51;1811626;77;20907;-69
2021/06/02 08:02:54;;;;;;;8.70;2.27;;;;;;;14.38;59.28;99463.12;1812869;79;20958;-67
2021/06/02 08:05:20;;;;;;;5.28;1.75;;;;;;;14.43;57.97;99447.75;1812897;79;23090;-68
2021/06/02 08:07:47;;;;;;;8.65;2.40;;;;;;;14.45;58.52;99464.75;1813182;79;20993;-68
2021/06/02 08:10:15;;;;;;;9.60;1.92;;;;;;;14.46;58.00;99460.84;1813079;77;21394;-67
2021/06/02 08:12:43;;;;;;;7.30;2.35;;;;;;;14.45;57.89;99462.56;1813096;79;20930;-68
2021/06/02 08:15:12;;;;;;;5.22;2.12;;;;;;;14.46;58.76;99460.03;1812974;79;21451;-68
2021/06/02 08:17:39;;;;;;;1.90;1.17;;;;;;;14.49;57.92;99475.34;1813023;79;21702;-68
2021/06/02 08:20:09;;;;;;;2.83;1.40;;;;;;;14.55;59.11;99475.92;1812825;79;21001;-68
2021/06/02 08:22:35;;;;;;;3.60;1.27;;;;;;;14.61;57.09;99456.59;1813027;79;20902;-68
2021/06/02 08:25:09;;;;;;;4.20;1.67;;;;;;;14.64;57.66;99456.48;1813054;79;21002;-68
2021/06/02 08:27:37;;;;;;;7.33;1.40;;;;;;;14.66;57.90;99462.47;1813142;79;21480;-68
2021/06/02 08:30:06;;;;;;;7.75;1.62;;;;;;;14.73;57.46;99464.08;1813392;79;21087;-68
2021/06/02 08:32:33;;;;;;;9.20;1.72;;;;;;;14.72;56.42;99460.52;1815577;78;20989;-68
2021/06/02 08:35:00;;;;;;;11.40;1.70;;;;;;;14.66;57.24;99472.14;1775926;79;21528;-68
2021/06/02 08:37:27;;;;;;;17.70;1.80;;;;;;;14.60;57.77;99458.32;1819778;77;20923;-68
2021/06/02 08:39:54;;;;;;;8.98;1.60;;;;;;;14.52;56.83;99469.13;1831810;78;20942;-68
2021/06/02 08:42:20;;;;;;;8.45;1.50;;;;;;;14.44;57.30;99475.56;1831817;77;21713;-68
2021/06/02 08:44:47;;;;;;;10.72;1.82;;;;;;;14.38;58.12;99474.75;1831525;78;21006;-68
2021/06/02 08:47:14;;;;;;;9.85;1.98;;;;;;;14.35;58.27;99469.91;1830817;78;22130;-68
2021/06/02 08:49:41;;;;;;;6.33;1.85;;;;;;;14.33;58.29;99473.02;1813650;77;21061;-68
2021/06/02 08:52:08;;;;;;;5.92;1.90;;;;;;;14.34;58.45;99474.63;1812243;79;21019;-68
2021/06/02 08:54:35;;;;;;;9.45;2.22;;;;;;;14.35;58.93;99477.62;1815971;77;21146;-68
2021/06/02 08:57:07;;;;;;;3.70;2.02;;;;;;;14.37;58.90;99487.75;1819092;77;21478;-68
2021/06/02 08:59:35;;;;;;;13.10;2.40;;;;;;;14.37;59.27;99490.52;1792634;79;21026;-69
2021/06/02 09:02:04;;;;;;;3.90;1.70;;;;;;;14.35;58.65;99480.38;1793291;79;21007;-68
2021/06/02 09:04:33;;;;;;;7.37;2.20;;;;;;;14.28;59.20;99484.85;1778640;79;21073;-69
2021/06/02 09:07:02;;;;;;;4.95;2.20;;;;;;;14.23;59.79;99472.64;1757495;79;21161;-68
2021/06/02 09:09:30;;;;;;;4.73;2.23;;;;;;;14.23;60.14;99484.49;1741761;80;21031;-68
2021/06/02 09:12:03;;;;;;;4.65;1.80;;;;;;;14.25;59.48;99483.58;1819562;77;20948;-68
2021/06/02 09:14:36;;;;;;;5.45;1.77;;;;;;;14.28;59.89;99478.75;1803446;78;20872;-68
2021/06/02 09:17:12;;;;;;;7.47;2.10;;;;;;;14.36;59.70;99481.99;1820096;77;22551;-69
2021/06/02 09:19:47;;;;;;;3.98;1.50;;;;;;;14.42;59.27;99486.18;1818907;77;22306;-69
2021/06/02 09:22:21;;;;;;;5.90;1.62;;;;;;;14.50;59.39;99488.58;1814972;77;20928;-69
2021/06/02 09:24:58;;;;;;;11.20;1.47;;;;;;;14.58;58.93;99489.05;1807920;77;21059;-68
2021/06/02 09:28:00;;;;;;;10.70;1.92;;;;;;;14.68;57.87;99492.75;1816183;78;21044;-67
2021/06/02 09:30:33;;;;;;;7.22;1.85;;;;;;;14.79;57.87;99485.62;1821319;78;21022;-67
2021/06/02 09:33:00;;;;;;;7.65;1.62;;;;;;;14.94;57.57;99488.84;1821305;78;20944;-67
2021/06/02 09:35:39;;;;;;;6.20;1.72;;;;;;;14.99;56.66;99501.05;1820633;78;21025;-68
2021/06/02 09:38:06;;;;;;;8.65;1.60;;;;;;;14.99;56.30;99497.71;1821447;78;20868;-67
2021/06/02 09:40:38;;;;;;;3.25;1.37;;;;;;;14.96;56.85;99502.55;1820937;78;21388;-68
2021/06/02 09:43:05;;;;;;;8.03;1.65;;;;;;;14.94;56.75;99502.66;1821445;78;20903;-67
2021/06/02 09:45:33;;;;;;;7.85;1.60;;;;;;;14.92;56.29;99495.30;1821056;78;21768;-67
2021/06/02 09:48:05;;;;;;;3.42;1.42;;;;;;;14.93;57.24;99496.91;1821047;78;21006;-67
2021/06/02 09:50:38;;;;;;;6.25;1.72;;;;;;;14.96;57.26;99500.36;1820884;78;20905;-68
2021/06/02 09:53:09;;;;;;;11.22;2.00;;;;;;;14.98;56.89;99498.86;1803346;78;21404;-69
2021/06/02 09:55:40;;;;;;;6.85;1.60;;;;;;;15.01;57.01;99499.55;1768292;79;20986;-68
2021/06/02 09:58:12;;;;;;;5.12;1.80;;;;;;;15.05;56.72;99500.45;1783510;80;21489;-68
2021/06/02 10:00:41;;;;;;;7.62;1.60;;;;;;;15.08;56.99;99501.13;1783174;80;21493;-68
2021/06/02 10:03:15;;;;;;;2.72;1.40;;;;;;;15.12;56.91;99500.67;1755830;80;20943;-68
2021/06/02 10:05:47;;;;;;;4.55;1.50;;;;;;;15.10;55.98;99511.84;1783333;80;20946;-69
2021/06/02 10:08:32;;;;;;;3.52;1.37;;;;;;;15.07;55.78;99519.45;1810502;78;20907;-68
2021/06/02 10:11:17;;;;;;;4.45;1.57;;;;;;;15.00;55.28;99507.62;1782256;80;20934;-68
2021/06/02 10:13:43;;;;;;;6.72;1.57;;;;;;;14.94;56.00;99521.44;1813133;79;20873;-69
2021/06/02 10:16:12;;;;;;;5.35;1.55;;;;;;;14.95;56.84;99518.09;1812479;79;20904;-68
2021/06/02 10:18:40;;;;;;;17.90;1.90;;;;;;;15.00;57.07;99520.63;1812676;79;20912;-68
2021/06/02 10:21:14;;;;;;;12.55;1.75;;;;;;;15.08;56.50;99516.92;1760214;79;20884;-68
2021/06/02 10:23:44;;;;;;;10.53;1.85;;;;;;;15.17;56.46;99525.90;1812395;79;20940;-67
2021/06/02 10:26:14;;;;;;;7.58;1.70;;;;;;;15.20;55.72;99518.30;1812544;79;20920;-67
2021/06/02 10:28:44;;;;;;;4.67;1.60;;;;;;;15.20;55.28;99527.39;1813081;79;20868;-69
2021/06/02 10:31:12;;;;;;;5.53;1.42;;;;;;;15.20;55.87;99512.19;1812438;79;20916;-67
2021/06/02 10:33:39;;;;;;;1.98;1.30;;;;;;;15.23;55.14;99518.17;1813073;79;21047;-68
2021/06/02 10:36:08;;;;;;;4.33;1.45;;;;;;;15.24;55.26;99521.17;1812232;79;21159;-68
2021/06/02 10:38:49;;;;;;;3.17;1.25;;;;;;;15.28;55.41;99519.33;1818512;77;21443;-67
2021/06/02 10:41:27;;;;;;;3.65;1.80;;;;;;;15.32;55.07;99521.05;1818787;77;20928;-68
2021/06/02 10:44:00;;;;;;;14.03;2.47;;;;;;;15.35;55.53;99521.73;1813468;77;20899;-67
2021/06/02 10:46:27;;;;;;;7.00;2.25;;;;;;;15.40;55.68;99533.14;1824182;77;20989;-67
2021/06/02 10:48:56;;;;;;;7.15;1.62;;;;;;;15.48;56.15;99520.56;1802975;78;20869;-67
2021/06/02 10:51:37;;;;;;;3.83;1.50;;;;;;;15.53;54.90;99538.89;1806797;77;20895;-66
2021/06/02 10:54:22;;;;;;;5.08;1.55;;;;;;;15.52;54.66;99535.89;1805285;77;20959;-66
2021/06/02 10:57:02;;;;;;;3.60;1.95;;;;;;;15.47;55.39;99536.13;1781477;80;21042;-67
2021/06/02 10:59:35;;;;;;;9.58;2.10;;;;;;;15.44;55.23;99528.52;1792197;77;20891;-67
2021/06/02 11:02:16;;;;;;;4.90;1.27;;;;;;;15.41;55.02;99533.38;1801751;77;21121;-67
2021/06/02 11:05:00;;;;;;;;;;;;;;;15.37;54.77;99539.37;1794821;77;20859;-67
2021/06/02 11:07:33;;;;;;;7.85;2.12;;;;;;;15.34;55.25;99531.77;1801133;78;20197;-67
2021/06/02 11:10:15;;;;;;;8.00;1.47;;;;;;;15.32;55.27;99539.03;1812815;79;21458;-68
2021/06/02 11:12:57;;;;;;;5.28;1.32;;;;;;;15.32;55.44;99539.03;1812232;79;20961;-70
2021/06/02 11:15:33;;;;;;;8.45;1.30;;;;;;;15.35;55.35;99534.19;1793180;79;21895;-67
2021/06/02 11:18:18;;;;;;;4.92;1.42;;;;;;;15.42;55.58;99528.06;1794934;79;20894;-66
2021/06/02 11:20:48;;;;;;;3.17;1.42;;;;;;;15.44;54.59;99532.09;1798161;77;20847;-67
2021/06/02 11:23:19;;;;;;;2.40;1.45;;;;;;;15.44;55.15;99526.56;1783539;79;21020;-67
2021/06/02 11:25:47;;;;;;;3.50;1.40;;;;;;;15.44;55.25;99530.72;1779383;80;21439;-67
2021/06/02 11:28:42;;;;;;;4.45;2.05;;;;;;;15.47;55.86;99528.63;1778912;80;21109;-67
2021/06/02 11:31:30;;;;;;;4.60;1.90;;;;;;;15.51;55.82;99528.75;1697491;82;21029;-68
2021/06/02 11:34:28;;;;;;;4.58;1.77;;;;;;;15.56;56.45;99526.31;1742508;82;20868;-67
2021/06/02 11:37:08;;;;;;;3.95;1.60;;;;;;;15.64;56.58;99529.52;1750623;82;20950;-67
2021/06/02 11:39:38;;;;;;;5.90;1.80;;;;;;;15.70;56.39;99523.40;1750487;81;20943;-67
2021/06/02 11:42:07;;;;;;;4.62;1.65;;;;;;;15.73;54.85;99529.62;1750735;81;21911;-67
2021/06/02 11:44:36;;;;;;;7.40;1.70;;;;;;;15.73;54.34;99532.39;1750488;80;21527;-67
2021/06/02 11:47:04;;;;;;;3.98;2.05;;;;;;;15.74;54.95;99534.58;1750945;81;20920;-66
2021/06/02 11:49:35;;;;;;;13.13;2.20;;;;;;;15.75;55.07;99535.61;1779946;80;21016;-66
2021/06/02 11:52:13;;;;;;;7.53;1.77;;;;;;;15.82;54.92;99537.20;1779918;80;20999;-66
2021/06/02 11:54:57;;;;;;;5.00;1.80;;;;;;;15.91;54.75;99541.80;1795115;79;21130;-66
2021/06/02 11:57:31;;;;;;;3.80;1.75;;;;;;;16.00;54.53;99535.53;1812261;79;20963;-66
2021/06/02 12:00:10;;;;;;;4.90;1.60;;;;;;;16.14;54.01;99542.28;1811953;79;21522;-66
2021/06/02 12:02:38;;;;;;;7.08;1.57;;;;;;;16.28;54.95;99554.89;1810523;79;21014;-68
2021/06/02 12:05:20;;;;;;;8.63;1.45;;;;;;;16.37;53.45;99552.19;1793351;79;21092;-67
2021/06/02 12:07:56;;;;;;;3.80;1.25;;;;;;;16.38;52.31;99539.95;1797975;79;21117;-68
2021/06/02 12:10:24;;;;;;;6.47;1.70;;;;;;;16.38;53.63;99546.88;1763695;81;21502;-68
2021/06/02 12:12:52;;;;;;;8.80;1.77;;;;;;;16.44;54.06;99546.84;1766577;80;20928;-79
2021/06/02 12:15:20;;;;;;;7.53;1.90;;;;;;;16.46;53.69;99548.69;1741390;82;20927;-79
2021/06/02 12:17:49;;;;;;;4.30;1.85;;;;;;;16.43;53.45;99552.73;1766495;81;21345;-80
2021/06/02 12:20:20;;;;;;;10.68;1.50;;;;;;;16.36;52.59;99561.66;1741508;82;21581;-83
2021/06/02 12:22:49;;;;;;;5.85;1.82;;;;;;;16.26;51.92;99551.09;1765743;81;21605;-76
2021/06/02 12:25:22;;;;;;;6.10;1.92;;;;;;;16.21;52.05;99538.07;1741514;82;20880;-74
2021/06/02 12:27:55;;;;;;;6.25;1.90;;;;;;;16.16;52.34;99557.16;1770842;79;20927;-75